Time;durP1;ratioP1;P1;durP2;ratioP2;P2;SDS_P1;SDS_P2;PMS_P1;PMS_P2;Temp;Humidity;BMP_temperature;BMP_pressure;BME280_temperature;BME280_humidity;BME280_pressure;Samples;Min_cycle;Max_cycle;Signal;HPM_P1;HPM_P2
2022/08/25 00:00:20;;;;;;;5.47;4.60;;;;;;;19.49;73.71;98376.72;5067732;28;20040;-86
2022/08/25 00:02:47;;;;;;;6.85;5.13;;;;;;;19.58;73.28;98386.91;5035662;28;20497;-86
2022/08/25 00:05:24;;;;;;;4.78;4.13;;;;;;;19.57;73.87;98382.66;5045787;28;20049;-87
2022/08/25 00:07:53;;;;;;;4.00;3.53;;;;;;;19.58;73.66;98376.25;5052956;28;20048;-86
2022/08/25 00:10:20;;;;;;;4.03;3.58;;;;;;;19.57;73.60;98374.66;5065833;28;20419;-86
2022/08/25 00:12:54;;;;;;;5.13;3.67;;;;;;;19.59;73.43;98376.03;5063352;28;20057;-86
2022/08/25 00:15:22;;;;;;;3.67;3.25;;;;;;;19.64;73.69;98376.09;5059822;28;20049;-86
2022/08/25 00:17:50;;;;;;;4.32;3.53;;;;;;;19.63;73.45;98371.03;5034291;28;20045;-86
2022/08/25 00:20:17;;;;;;;3.38;3.08;;;;;;;19.61;73.26;98367.78;5030246;28;20448;-86
2022/08/25 00:22:44;;;;;;;3.67;3.28;;;;;;;19.66;73.69;98367.84;5030507;28;20076;-86
2022/08/25 00:25:11;;;;;;;3.33;3.00;;;;;;;19.57;73.32;98366.69;5049398;28;20090;-86
2022/08/25 00:27:38;;;;;;;3.85;3.45;;;;;;;19.46;73.93;98363.91;5069515;28;20492;-86
2022/08/25 00:30:06;;;;;;;3.85;2.80;;;;;;;19.64;73.73;98372.63;5053136;28;20087;-86
2022/08/25 00:32:33;;;;;;;3.33;3.03;;;;;;;19.57;73.61;98361.38;5062187;28;20094;-86
2022/08/25 00:35:00;;;;;;;5.15;4.63;;;;;;;19.38;74.65;98353.72;5052745;28;20132;-85
2022/08/25 00:37:26;;;;;;;3.50;3.20;;;;;;;19.43;74.74;98361.75;5065968;28;20516;-86
2022/08/25 00:39:55;;;;;;;3.83;3.42;;;;;;;19.44;74.82;98363.38;5048969;28;20037;-86
2022/08/25 00:42:25;;;;;;;3.83;3.10;;;;;;;19.48;74.88;98361.00;5047073;28;20055;-85
2022/08/25 00:44:52;;;;;;;3.47;3.10;;;;;;;19.41;74.53;98355.06;5058972;28;20040;-86
2022/08/25 00:47:19;;;;;;;3.33;2.83;;;;;;;19.46;74.60;98366.56;5034060;28;20099;-86
2022/08/25 00:49:53;;;;;;;5.15;4.60;;;;;;;19.24;75.82;98357.81;5041141;28;20086;-86
2022/08/25 00:52:26;;;;;;;3.30;3.00;;;;;;;19.31;75.74;98365.59;5069810;28;20045;-85
2022/08/25 00:55:01;;;;;;;4.65;4.20;;;;;;;19.20;75.85;98362.03;5049835;28;20061;-86
2022/08/25 00:57:44;;;;;;;3.78;3.25;;;;;;;19.27;75.40;98367.97;5058860;28;20086;-85
2022/08/25 01:00:39;;;;;;;4.43;4.03;;;;;;;19.16;75.76;98366.22;5066828;28;20045;-85
2022/08/25 01:03:06;;;;;;;5.75;4.85;;;;;;;19.10;75.59;98359.25;5055979;28;20052;-85
2022/08/25 01:05:34;;;;;;;6.43;5.78;;;;;;;19.04;76.05;98370.88;5073618;28;20631;-85
2022/08/25 01:08:05;;;;;;;6.15;5.55;;;;;;;18.94;76.32;98359.06;5050790;28;20046;-85
2022/08/25 01:10:36;;;;;;;6.20;5.57;;;;;;;18.97;76.26;98366.53;5046135;28;20045;-85
2022/08/25 01:13:12;;;;;;;5.00;4.50;;;;;;;19.05;76.25;98365.31;5061348;28;20049;-85
2022/08/25 01:15:47;;;;;;;5.45;4.68;;;;;;;19.08;76.21;98354.19;5048346;28;20041;-86
2022/08/25 01:18:15;;;;;;;5.32;4.82;;;;;;;19.06;76.40;98350.97;5044979;28;20045;-85
2022/08/25 01:20:42;;;;;;;4.47;4.07;;;;;;;19.16;75.65;98358.25;5042494;28;20096;-86
2022/08/25 01:23:09;;;;;;;4.00;3.60;;;;;;;19.19;75.85;98352.44;5043485;28;20515;-85
2022/08/25 01:26:06;;;;;;;4.93;3.78;;;;;;;19.19;76.03;98357.75;5068816;28;20447;-86
2022/08/25 01:28:34;;;;;;;3.47;3.17;;;;;;;19.19;75.68;98349.78;5032445;28;20045;-86
2022/08/25 01:31:03;;;;;;;3.88;3.38;;;;;;;19.17;75.34;98354.53;5049405;28;20060;-85
2022/08/25 01:33:50;;;;;;;4.15;3.75;;;;;;;19.15;75.10;98351.34;5052801;28;20045;-85
2022/08/25 01:36:19;;;;;;;3.63;3.20;;;;;;;19.10;75.49;98351.28;5053620;28;20519;-85
2022/08/25 01:38:45;;;;;;;3.17;2.70;;;;;;;19.13;75.18;98345.44;5044492;28;20127;-85
2022/08/25 01:41:39;;;;;;;3.50;3.20;;;;;;;19.07;74.96;98346.44;5059258;28;20048;-85
2022/08/25 01:44:07;;;;;;;3.83;2.90;;;;;;;19.10;75.22;98343.31;5066432;28;20041;-86
2022/08/25 01:46:42;;;;;;;3.22;2.92;;;;;;;19.01;75.85;98331.47;5067246;28;20131;-85
2022/08/25 01:49:09;;;;;;;4.78;4.13;;;;;;;18.85;77.26;98333.97;5066158;28;20072;-85
2022/08/25 01:52:09;;;;;;;5.28;4.78;;;;;;;18.79;77.57;98344.78;5066202;28;20076;-85
2022/08/25 01:54:37;;;;;;;3.83;3.35;;;;;;;18.87;77.31;98342.50;5059016;28;20103;-85
2022/08/25 01:57:04;;;;;;;6.22;5.57;;;;;;;18.65;77.67;98338.97;5072309;28;20086;-85
2022/08/25 01:59:31;;;;;;;10.10;8.57;;;;;;;18.33;79.03;98334.31;5072158;28;20270;-84
2022/08/25 02:01:57;;;;;;;9.88;8.70;;;;;;;18.21;79.62;98338.91;5064367;28;20094;-84
2022/08/25 02:04:30;;;;;;;9.60;8.02;;;;;;;18.12;80.44;98345.69;5072337;28;20049;-85
2022/08/25 02:07:00;;;;;;;9.30;8.20;;;;;;;18.05;80.83;98351.16;5059462;28;20132;-85
2022/08/25 02:09:28;;;;;;;8.98;7.43;;;;;;;18.12;80.80;98349.13;5035107;28;20069;-84
2022/08/25 02:11:57;;;;;;;9.50;7.38;;;;;;;18.10;80.66;98345.09;5048570;28;20124;-85
2022/08/25 02:14:25;;;;;;;8.82;7.40;;;;;;;18.15;80.84;98350.50;5056088;28;20064;-85
2022/08/25 02:16:53;;;;;;;9.05;6.97;;;;;;;18.17;80.52;98351.03;5072170;28;20122;-84
2022/08/25 02:19:23;;;;;;;6.28;4.82;;;;;;;18.27;80.41;98348.56;5072420;28;20405;-84
2022/08/25 02:21:50;;;;;;;5.97;5.22;;;;;;;18.35;79.88;98355.28;5071862;28;20052;-84
2022/08/25 02:24:17;;;;;;;9.27;7.75;;;;;;;18.14;80.67;98343.56;5072237;28;20610;-85
2022/08/25 02:26:44;;;;;;;8.13;6.90;;;;;;;18.17;80.45;98351.03;5051460;28;20526;-85
2022/08/25 02:29:11;;;;;;;6.53;5.82;;;;;;;18.14;80.45;98338.28;5053069;28;20041;-84
2022/08/25 02:31:39;;;;;;;6.03;5.00;;;;;;;18.21;80.58;98340.75;5040430;28;20056;-85
2022/08/25 02:34:07;;;;;;;5.00;4.35;;;;;;;18.25;79.88;98329.41;5037128;28;20116;-84
2022/08/25 02:36:36;;;;;;;4.70;4.07;;;;;;;18.37;79.81;98332.78;5052829;28;20087;-84
2022/08/25 02:39:08;;;;;;;4.50;3.58;;;;;;;18.44;79.46;98338.72;5048771;28;20041;-84
2022/08/25 02:41:35;;;;;;;5.85;5.25;;;;;;;18.36;79.64;98325.88;5071535;28;20474;-85
2022/08/25 02:44:05;;;;;;;5.15;4.53;;;;;;;18.29;80.09;98324.41;5071504;28;20068;-84
2022/08/25 02:46:33;;;;;;;6.78;5.10;;;;;;;18.22;80.24;98327.22;5031865;28;20050;-84
2022/08/25 02:49:00;;;;;;;6.70;5.45;;;;;;;18.17;80.49;98316.53;5036985;28;20337;-84
2022/08/25 02:51:28;;;;;;;7.13;6.38;;;;;;;18.03;81.05;98323.22;5030613;28;20037;-84
2022/08/25 02:53:58;;;;;;;8.15;7.35;;;;;;;18.00;81.08;98316.56;5050228;28;20124;-85
2022/08/25 02:56:25;;;;;;;6.40;5.80;;;;;;;17.98;81.17;98317.84;5043443;28;20099;-84
2022/08/25 02:58:52;;;;;;;9.93;7.38;;;;;;;17.93;81.39;98318.56;5061826;28;20045;-84
2022/08/25 03:01:19;;;;;;;6.32;4.63;;;;;;;17.98;81.11;98307.22;5035263;28;20053;-86
2022/08/25 03:03:51;;;;;;;5.07;4.55;;;;;;;18.12;80.56;98316.47;5045381;28;20044;-85
2022/08/25 03:06:24;;;;;;;7.70;6.63;;;;;;;18.06;81.01;98325.41;5070926;28;20050;-85
2022/08/25 03:08:52;;;;;;;9.05;6.38;;;;;;;18.08;81.04;98318.00;5028381;28;20069;-84
2022/08/25 03:11:19;;;;;;;6.05;5.32;;;;;;;18.05;81.05;98314.00;5049468;28;20049;-85
2022/08/25 03:13:49;;;;;;;7.30;5.22;;;;;;;18.11;81.35;98317.50;5033656;28;20443;-84
2022/08/25 03:16:18;;;;;;;6.03;4.90;;;;;;;18.18;81.17;98318.97;5058444;28;20041;-85
2022/08/25 03:18:45;;;;;;;7.93;5.57;;;;;;;18.16;80.46;98321.03;5031022;28;20444;-85
2022/08/25 03:21:13;;;;;;;7.78;6.18;;;;;;;18.07;81.47;98316.41;5039432;28;20111;-85
2022/08/25 03:23:43;;;;;;;8.23;7.35;;;;;;;18.06;81.51;98314.81;5036777;28;20041;-85
2022/08/25 03:28:56;;;;;;;12.52;8.50;;;;;;;17.81;82.27;98313.34;5061970;28;20079;-85
2022/08/25 03:31:26;;;;;;;10.25;8.95;;;;;;;17.67;82.51;98307.50;5055139;28;20036;-85
2022/08/25 03:33:54;;;;;;;8.85;7.40;;;;;;;17.65;82.42;98308.81;5064174;28;20087;-86
2022/08/25 03:36:20;;;;;;;8.57;7.45;;;;;;;17.69;82.56;98322.38;5062868;28;20546;-84
2022/08/25 03:38:47;;;;;;;7.97;7.00;;;;;;;17.66;82.69;98311.22;5038303;28;20525;-84
2022/08/25 03:41:24;;;;;;;7.00;6.20;;;;;;;17.74;82.71;98325.94;5066139;28;20068;-84
2022/08/25 03:43:55;;;;;;;8.55;6.65;;;;;;;17.63;82.49;98308.22;5050977;28;20044;-85
2022/08/25 03:46:36;;;;;;;8.43;7.18;;;;;;;17.61;82.23;98311.13;5039691;28;20045;-84
2022/08/25 03:49:07;;;;;;;9.70;8.05;;;;;;;17.58;83.04;98322.22;5057161;28;20477;-84
2022/08/25 03:51:39;;;;;;;8.75;7.80;;;;;;;17.49;83.44;98312.22;5056633;28;20044;-83
2022/08/25 03:54:08;;;;;;;7.55;6.75;;;;;;;17.51;83.27;98318.91;5063324;28;20484;-84
2022/08/25 03:56:35;;;;;;;8.02;6.85;;;;;;;17.55;83.21;98313.94;5068569;28;20075;-83
2022/08/25 03:59:02;;;;;;;10.70;8.57;;;;;;;17.47;83.67;98311.69;5059737;28;20651;-84
2022/08/25 04:01:29;;;;;;;10.43;8.60;;;;;;;17.39;83.61;98305.72;5043729;28;20099;-84
2022/08/25 04:03:55;;;;;;;9.80;7.50;;;;;;;17.45;83.60;98308.44;5045667;28;20489;-85
2022/08/25 04:06:22;;;;;;;8.50;7.18;;;;;;;17.47;83.66;98307.16;5066392;28;20095;-85
2022/08/25 04:08:51;;;;;;;10.75;8.35;;;;;;;17.43;83.96;98305.22;5044298;28;20123;-84
2022/08/25 04:11:21;;;;;;;9.55;8.13;;;;;;;17.44;83.73;98302.34;5069323;28;20048;-84
2022/08/25 04:13:50;;;;;;;9.38;7.70;;;;;;;17.39;82.99;98295.13;5067354;28;20041;-84
2022/08/25 04:16:28;;;;;;;5.72;4.75;;;;;;;17.55;81.98;98292.72;5057355;28;20071;-84
2022/08/25 04:18:57;;;;;;;4.90;4.22;;;;;;;17.52;79.68;98291.34;5030231;28;20104;-84
2022/08/25 04:21:25;;;;;;;5.80;3.97;;;;;;;17.53;79.64;98285.00;5039863;28;20048;-84
2022/08/25 04:23:54;;;;;;;9.65;8.25;;;;;;;17.41;83.06;98304.69;5053811;28;20634;-84
2022/08/25 04:26:32;;;;;;;12.20;10.15;;;;;;;17.26;84.19;98307.84;5058317;28;20048;-85
2022/08/25 04:29:02;;;;;;;9.02;7.53;;;;;;;17.32;83.81;98298.94;5061776;28;20069;-84
2022/08/25 04:31:30;;;;;;;10.25;7.28;;;;;;;17.33;82.76;98305.84;5059179;28;20075;-84
2022/08/25 04:34:01;;;;;;;7.70;6.38;;;;;;;17.32;81.84;98304.22;5055884;28;20584;-84
2022/08/25 04:36:28;;;;;;;11.95;10.05;;;;;;;17.12;83.79;98302.81;5049075;28;20069;-84
2022/08/25 04:38:55;;;;;;;13.60;11.15;;;;;;;16.99;84.36;98303.13;5059952;28;20068;-85
2022/08/25 04:41:24;;;;;;;13.75;11.35;;;;;;;16.90;84.61;98314.31;5066764;28;20106;-84
2022/08/25 04:43:52;;;;;;;13.25;10.63;;;;;;;16.97;84.64;98312.31;5060069;28;20099;-84
2022/08/25 04:46:23;;;;;;;11.10;9.90;;;;;;;16.94;84.77;98316.25;5068473;28;20049;-84
2022/08/25 04:48:52;;;;;;;9.90;7.88;;;;;;;17.05;84.54;98319.91;5027872;28;20046;-84
2022/08/25 04:51:26;;;;;;;11.52;9.48;;;;;;;16.97;84.99;98322.91;5045822;28;20053;-84
2022/08/25 04:53:53;;;;;;;11.85;9.40;;;;;;;16.85;85.05;98310.53;5069851;28;20080;-84
2022/08/25 04:56:25;;;;;;;8.88;7.50;;;;;;;16.96;84.90;98310.72;5051947;28;20477;-84
2022/08/25 04:58:54;;;;;;;11.18;8.63;;;;;;;16.93;84.57;98308.56;5062588;28;20374;-84
2022/08/25 05:01:24;;;;;;;13.05;10.55;;;;;;;16.95;84.93;98317.06;5028701;28;20087;-85
2022/08/25 05:03:59;;;;;;;14.50;12.38;;;;;;;16.87;85.22;98333.34;5040683;28;20048;-84
2022/08/25 05:06:27;;;;;;;15.02;11.18;;;;;;;16.82;85.40;98320.78;5069877;28;20068;-84
2022/08/25 05:08:56;;;;;;;14.70;11.75;;;;;;;16.87;85.33;98326.19;5032524;28;20452;-84
2022/08/25 05:11:25;;;;;;;10.55;8.55;;;;;;;16.97;84.68;98317.63;5058770;28;20499;-84
2022/08/25 05:13:55;;;;;;;12.60;9.45;;;;;;;17.07;84.67;98323.13;5047518;28;20049;-84
2022/08/25 05:16:25;;;;;;;12.82;9.75;;;;;;;17.16;84.40;98326.22;5068839;28;20530;-83
2022/08/25 05:18:53;;;;;;;9.75;8.25;;;;;;;17.31;84.05;98318.53;5068880;28;20050;-83
2022/08/25 05:21:26;;;;;;;8.30;7.15;;;;;;;17.35;83.68;98307.22;5042178;28;20045;-84
2022/08/25 05:23:58;;;;;;;7.75;6.30;;;;;;;17.53;83.32;98300.13;5069029;28;20468;-83
2022/08/25 05:26:29;;;;;;;6.47;5.45;;;;;;;17.61;82.46;98297.06;5051349;28;20103;-84
2022/08/25 05:28:57;;;;;;;;;;;;;;;17.69;80.64;98301.94;5041625;28;20053;-84
2022/08/25 05:31:25;;;;;;;7.10;4.85;;;;;;;17.75;81.30;98300.22;5058515;28;19971;-84
2022/08/25 05:33:54;;;;;;;4.72;4.22;;;;;;;17.83;80.98;98303.28;5038604;28;20132;-84
2022/08/25 05:36:23;;;;;;;4.32;3.90;;;;;;;17.99;80.85;98298.22;5033113;28;20500;-83
2022/08/25 05:38:50;;;;;;;4.63;3.97;;;;;;;18.04;80.50;98296.44;5072523;28;20890;-84
2022/08/25 05:41:24;;;;;;;4.60;3.92;;;;;;;18.15;80.40;98298.19;5072704;28;20068;-84
2022/08/25 05:43:50;;;;;;;5.88;4.63;;;;;;;18.10;80.14;98298.13;5069550;28;20068;-84
2022/08/25 05:46:20;;;;;;;4.38;3.97;;;;;;;18.23;80.31;98299.63;5038943;28;20095;-84
2022/08/25 05:48:48;;;;;;;4.07;3.50;;;;;;;18.36;80.10;98309.13;5049965;28;20102;-84
2022/08/25 05:51:16;;;;;;;5.20;3.70;;;;;;;18.45;79.87;98300.47;5052149;28;20166;-85
2022/08/25 05:53:47;;;;;;;4.35;3.90;;;;;;;18.51;79.43;98305.88;5059693;28;20052;-84
2022/08/25 05:56:14;;;;;;;6.47;4.20;;;;;;;18.57;78.80;98310.19;5060958;28;20045;-84
2022/08/25 05:58:43;;;;;;;5.10;4.32;;;;;;;18.54;77.94;98297.41;5050510;28;20073;-85
2022/08/25 06:04:11;;;;;;;5.13;4.33;;;;;;;18.82;77.51;98296.47;5038160;28;20464;-85
2022/08/25 06:06:38;;;;;;;4.70;4.00;;;;;;;19.00;77.57;98298.78;5044280;28;20095;-86
2022/08/25 06:09:08;;;;;;;5.72;4.65;;;;;;;19.07;76.45;98304.75;5039789;28;20091;-86
2022/08/25 06:11:40;;;;;;;6.97;4.80;;;;;;;19.14;77.41;98299.22;5045023;28;20038;-86
2022/08/25 06:14:08;;;;;;;4.90;4.10;;;;;;;19.20;76.07;98298.22;5031110;28;20077;-85
2022/08/25 06:16:37;;;;;;;8.18;5.40;;;;;;;19.30;75.23;98295.66;5014714;28;20057;-86
2022/08/25 06:19:07;;;;;;;6.00;4.53;;;;;;;19.45;76.08;98298.47;5060747;28;20045;-86
2022/08/25 06:21:36;;;;;;;5.35;3.83;;;;;;;19.47;75.94;98288.38;5072066;28;20044;-87
2022/08/25 06:24:03;;;;;;;4.70;3.95;;;;;;;19.67;75.69;98302.94;5070990;28;20049;-87
2022/08/25 06:26:30;;;;;;;6.50;5.50;;;;;;;19.67;74.95;98286.97;5063052;28;20049;-87
2022/08/25 06:28:57;;;;;;;5.85;4.82;;;;;;;19.75;75.53;98292.66;5040469;28;20127;-87
2022/08/25 06:31:23;;;;;;;8.48;7.00;;;;;;;19.78;74.35;98293.97;5054452;28;20099;-86
2022/08/25 06:33:51;;;;;;;11.30;9.75;;;;;;;19.64;74.53;98296.28;5056456;28;20041;-86
2022/08/25 06:36:19;;;;;;;8.13;7.30;;;;;;;19.91;75.38;98309.56;5070769;28;20439;-86
2022/08/25 06:38:47;;;;;;;11.35;9.90;;;;;;;19.83;74.82;98295.88;5052214;28;20531;-86
2022/08/25 06:41:15;;;;;;;11.95;9.48;;;;;;;19.96;74.46;98293.59;5046249;28;20485;-87
2022/08/25 06:43:42;;;;;;;7.68;6.88;;;;;;;20.26;74.14;98290.31;5033148;28;20075;-87
2022/08/25 06:46:20;;;;;;;6.75;5.38;;;;;;;20.60;73.87;98278.56;5029985;28;20072;-86
2022/08/25 06:48:48;;;;;;;5.80;5.20;;;;;;;20.81;72.86;98285.56;5050365;28;20072;-87
2022/08/25 06:51:19;;;;;;;6.07;5.47;;;;;;;20.96;72.27;98282.97;5053877;28;20053;-88
2022/08/25 06:53:48;;;;;;;8.95;7.30;;;;;;;20.90;72.10;98285.88;5040034;28;20039;-87
2022/08/25 06:56:18;;;;;;;8.68;7.70;;;;;;;20.95;73.03;98286.69;5071313;28;20044;-87
2022/08/25 06:58:46;;;;;;;10.13;8.73;;;;;;;20.97;72.35;98289.88;5052478;28;20045;-87
2022/08/25 07:01:25;;;;;;;11.90;9.90;;;;;;;20.98;72.08;98286.16;5060774;28;20166;-85
2022/08/25 07:03:56;;;;;;;9.57;8.63;;;;;;;21.18;71.69;98277.41;5054608;28;20052;-87
2022/08/25 07:06:25;;;;;;;;;;;;;;;21.34;71.42;98281.72;5064336;28;20052;-88
2022/08/25 07:08:52;;;;;;;8.40;7.35;;;;;;;21.58;71.37;98279.34;5054555;28;19927;-86
2022/08/25 07:11:20;;;;;;;7.78;6.82;;;;;;;21.70;70.34;98267.63;5047661;28;20033;-87
2022/08/25 07:13:48;;;;;;;7.40;6.10;;;;;;;21.95;70.24;98272.97;5067632;28;20105;-86
2022/08/25 07:16:17;;;;;;;7.53;6.68;;;;;;;22.13;69.74;98264.41;5058816;28;20151;-86
2022/08/25 07:18:45;;;;;;;10.13;9.00;;;;;;;22.17;69.43;98268.13;5070015;28;20102;-87
2022/08/25 07:21:14;;;;;;;9.35;8.23;;;;;;;22.37;69.13;98269.13;5070993;28;20055;-85
2022/08/25 07:23:41;;;;;;;10.05;8.35;;;;;;;22.38;68.18;98249.38;5044754;28;20083;-86
2022/08/25 07:26:35;;;;;;;8.55;7.72;;;;;;;22.70;67.36;98259.69;5050712;28;20044;-84
2022/08/25 07:29:18;;;;;;;7.93;7.10;;;;;;;22.87;67.98;98240.66;5039974;28;20690;-86
2022/08/25 07:31:45;;;;;;;;;;;;;;;23.17;66.99;98250.38;5054805;28;20037;-88
2022/08/25 07:37:04;;;;;;;7.72;6.97;;;;;;;23.48;65.75;98258.97;5043573;28;20057;-87
2022/08/25 07:39:33;;;;;;;8.40;7.28;;;;;;;23.65;64.95;98266.66;5051288;28;20060;-88
2022/08/25 07:42:01;;;;;;;10.10;8.88;;;;;;;23.62;64.26;98246.56;5051946;28;20041;-87
2022/08/25 07:44:28;;;;;;;7.70;6.90;;;;;;;23.88;63.86;98265.13;5033232;28;20049;-88
2022/08/25 07:46:55;;;;;;;9.98;8.98;;;;;;;23.82;64.69;98250.19;5030761;28;20405;-86
2022/08/25 07:49:25;;;;;;;8.95;7.90;;;;;;;23.89;64.51;98264.03;5021858;28;20044;-87
2022/08/25 07:52:02;;;;;;;9.88;8.95;;;;;;;24.08;63.80;98272.16;5037682;28;20037;-87
2022/08/25 07:54:34;;;;;;;9.55;8.00;;;;;;;24.05;63.20;98257.47;5059001;28;20056;-87
2022/08/25 07:57:08;;;;;;;10.02;8.05;;;;;;;24.28;62.70;98267.38;5063427;28;20045;-87
2022/08/25 07:59:41;;;;;;;7.60;6.80;;;;;;;24.56;63.73;98259.59;5069781;28;20044;-88
2022/08/25 08:02:12;;;;;;;6.75;5.95;;;;;;;24.83;61.99;98259.81;5069295;28;20041;-87
2022/08/25 08:04:47;;;;;;;8.32;7.50;;;;;;;24.91;62.10;98270.97;5050296;28;20049;-87
2022/08/25 08:07:16;;;;;;;;;;;;;;;25.05;61.66;98267.31;5050866;28;20136;-88
2022/08/25 08:09:43;;;;;;;6.88;6.18;;;;;;;25.16;60.96;98262.59;5048008;28;19960;-87
2022/08/25 08:12:13;;;;;;;7.63;6.70;;;;;;;25.27;59.37;98264.06;5050551;28;20067;-85
2022/08/25 08:14:41;;;;;;;6.72;6.10;;;;;;;25.38;58.30;98255.84;5066856;28;20052;-85
2022/08/25 08:17:12;;;;;;;7.97;6.70;;;;;;;25.45;56.88;98261.66;5051286;28;20067;-88
2022/08/25 08:19:39;;;;;;;7.60;6.90;;;;;;;25.63;57.94;98271.56;5045554;28;20063;-89
2022/08/25 08:22:14;;;;;;;6.55;5.95;;;;;;;25.65;56.86;98253.25;5056013;28;20044;-87
2022/08/25 08:24:43;;;;;;;;;;;;;;;25.72;56.05;98258.25;5048222;28;20098;-85
2022/08/25 08:27:21;;;;;;;9.40;8.13;;;;;;;25.73;57.44;98252.63;5049479;28;19921;-87
2022/08/25 08:29:48;;;;;;;7.97;7.18;;;;;;;25.69;56.36;98253.47;5048317;28;20040;-86
2022/08/25 08:32:16;;;;;;;7.00;6.32;;;;;;;25.83;57.27;98244.38;5060640;28;20093;-86
2022/08/25 08:34:45;;;;;;;7.03;6.32;;;;;;;26.01;55.16;98247.28;5057364;28;20053;-86
2022/08/25 08:37:17;;;;;;;7.05;6.35;;;;;;;26.07;56.60;98238.84;5049652;28;20091;-86
2022/08/25 08:39:46;;;;;;;8.52;7.07;;;;;;;26.13;56.62;98242.22;5044249;28;20047;-86
2022/08/25 08:42:41;;;;;;;7.32;6.63;;;;;;;26.30;56.67;98253.19;5030591;28;20531;-84
2022/08/25 08:45:27;;;;;;;7.65;6.95;;;;;;;26.30;55.25;98249.72;5066372;28;20478;-84
2022/08/25 08:48:41;;;;;;;7.30;6.60;;;;;;;26.30;55.58;98242.44;5028347;28;20045;-86
2022/08/25 08:51:26;;;;;;;8.55;7.07;;;;;;;26.44;55.03;98238.97;5048431;28;20135;-85
2022/08/25 08:54:17;;;;;;;7.80;7.07;;;;;;;26.41;54.77;98233.13;5049585;28;20139;-85
2022/08/25 08:56:49;;;;;;;6.72;5.80;;;;;;;26.66;55.91;98225.63;5039518;28;20067;-85
2022/08/25 08:59:24;;;;;;;8.27;7.47;;;;;;;26.70;53.66;98218.56;5068540;28;20047;-86
2022/08/25 09:02:02;;;;;;;6.72;5.75;;;;;;;26.90;51.31;98225.38;5069816;28;20076;-85
2022/08/25 09:04:56;;;;;;;6.68;6.07;;;;;;;27.04;51.49;98228.03;5070731;28;20051;-86
2022/08/25 09:07:38;;;;;;;6.63;6.00;;;;;;;27.19;51.07;98235.78;5033578;28;20049;-86
2022/08/25 09:10:11;;;;;;;6.30;5.80;;;;;;;27.13;51.09;98237.81;5067921;28;20125;-86
2022/08/25 09:13:05;;;;;;;6.53;5.95;;;;;;;27.17;50.67;98232.63;5035564;28;20122;-86
2022/08/25 09:19:22;;;;;;;5.95;5.35;;;;;;;27.61;49.98;98247.19;5027477;28;20397;-86
2022/08/25 09:22:05;;;;;;;7.43;6.70;;;;;;;27.32;50.76;98232.25;5035052;28;20558;-86
2022/08/25 09:25:12;;;;;;;6.05;5.47;;;;;;;27.44;50.53;98231.69;5047260;28;20138;-84
2022/08/25 09:28:08;;;;;;;6.30;5.70;;;;;;;27.73;49.81;98239.38;5038529;28;20413;-84
2022/08/25 09:30:56;;;;;;;5.40;5.00;;;;;;;28.08;48.58;98234.16;5044161;28;20044;-86
2022/08/25 09:33:26;;;;;;;5.78;5.18;;;;;;;28.20;48.16;98227.06;5041478;28;20041;-85
2022/08/25 09:35:55;;;;;;;6.65;6.03;;;;;;;28.22;47.29;98230.25;5030623;28;20103;-85
2022/08/25 09:38:25;;;;;;;7.07;6.32;;;;;;;27.95;48.08;98225.88;5036978;28;20053;-85
2022/08/25 09:40:59;;;;;;;6.35;5.25;;;;;;;27.81;47.93;98219.75;5044092;28;20102;-86
2022/08/25 09:43:27;;;;;;;5.43;4.93;;;;;;;27.76;48.98;98217.19;5038485;28;20046;-86
2022/08/25 09:46:22;;;;;;;5.00;4.60;;;;;;;27.82;49.33;98220.53;5062922;28;20132;-87
2022/08/25 09:49:10;;;;;;;5.78;5.22;;;;;;;27.77;47.99;98213.41;5053046;28;20064;-84
2022/08/25 09:51:40;;;;;;;6.60;6.00;;;;;;;27.77;47.92;98215.28;5050637;28;20115;-87
2022/08/25 09:54:11;;;;;;;6.82;6.22;;;;;;;27.89;47.99;98210.94;5018133;28;20459;-87
2022/08/25 09:56:59;;;;;;;6.75;5.60;;;;;;;28.13;47.72;98207.03;5034570;28;20155;-88
2022/08/25 09:59:35;;;;;;;5.90;5.30;;;;;;;27.98;47.51;98197.47;5065927;28;20045;-87
2022/08/25 10:02:25;;;;;;;5.97;5.47;;;;;;;27.68;46.83;98193.66;5046038;28;20403;-86
2022/08/25 10:04:53;;;;;;;5.63;5.13;;;;;;;27.85;47.58;98193.78;5048227;28;20111;-84
2022/08/25 10:07:46;;;;;;;6.13;5.53;;;;;;;28.17;47.19;98183.75;5032827;28;20512;-85
2022/08/25 10:10:32;;;;;;;6.68;6.07;;;;;;;28.22;47.25;98187.09;5081720;28;20123;-86
2022/08/25 10:13:14;;;;;;;6.18;5.68;;;;;;;28.24;46.70;98173.28;5088183;28;20049;-85
2022/08/25 10:16:06;;;;;;;8.55;7.75;;;;;;;28.09;47.06;98171.03;5070771;28;20583;-86
2022/08/25 10:19:07;;;;;;;7.68;7.03;;;;;;;27.87;47.74;98175.38;5031451;28;20385;-86
2022/08/25 10:21:37;;;;;;;7.13;6.53;;;;;;;28.03;48.34;98164.22;5060746;28;20491;-87
2022/08/25 10:24:08;;;;;;;5.68;5.18;;;;;;;28.46;48.31;98172.44;5041636;28;20044;-85
2022/08/25 10:26:42;;;;;;;;;;;;;;;28.57;47.03;98159.44;5043535;28;20045;-86
2022/08/25 10:29:41;;;;;;;6.40;5.80;;;;;;;28.41;46.47;98151.78;5036234;28;20348;-86
2022/08/25 10:32:15;;;;;;;6.03;5.32;;;;;;;28.52;46.51;98163.88;5032875;28;20056;-88
2022/08/25 10:34:54;;;;;;;5.13;4.63;;;;;;;28.74;46.01;98159.47;5039188;28;20422;-86
2022/08/25 10:38:02;;;;;;;6.30;5.70;;;;;;;28.45;45.82;98154.66;5039842;28;20069;-87
2022/08/25 10:40:48;;;;;;;6.20;5.60;;;;;;;28.27;46.44;98141.13;5053742;28;20053;-86
2022/08/25 10:43:48;;;;;;;6.30;5.70;;;;;;;28.05;47.99;98132.34;5048683;28;20454;-88
2022/08/25 10:46:41;;;;;;;6.90;6.30;;;;;;;27.93;46.82;98141.00;5041691;28;20198;-85
2022/08/25 10:49:24;;;;;;;5.90;5.40;;;;;;;28.32;46.44;98121.34;5037767;28;20037;-87
2022/08/25 10:52:36;;;;;;;6.45;5.85;;;;;;;28.92;45.77;98126.00;5035559;28;20037;-88
2022/08/25 10:55:23;;;;;;;6.25;5.65;;;;;;;28.95;44.20;98119.16;5039443;28;20650;-85
2022/08/25 10:58:03;;;;;;;6.25;5.65;;;;;;;28.62;46.05;98113.44;5047401;28;20052;-86
2022/08/25 11:00:53;;;;;;;6.68;5.95;;;;;;;28.57;45.22;98118.97;5065445;28;20048;-86
2022/08/25 11:03:51;;;;;;;6.03;5.43;;;;;;;28.90;45.18;98114.66;5049006;28;20050;-86
2022/08/25 11:06:37;;;;;;;8.48;7.05;;;;;;;28.76;45.42;98106.75;5033278;28;20045;-86
2022/08/25 11:09:17;;;;;;;8.45;7.20;;;;;;;28.46;47.45;98111.19;5053550;28;20040;-86
2022/08/25 11:12:18;;;;;;;7.05;6.35;;;;;;;28.47;46.51;98112.78;5050426;28;20485;-82
2022/08/25 11:14:55;;;;;;;7.07;6.38;;;;;;;28.55;45.55;98108.50;5044537;28;20041;-88
2022/08/25 11:17:46;;;;;;;7.00;6.30;;;;;;;28.83;48.05;98116.28;5057015;28;20114;-86
2022/08/25 11:20:37;;;;;;;7.47;6.50;;;;;;;28.69;45.60;98111.03;5061455;28;20045;-87
2022/08/25 11:23:24;;;;;;;6.78;6.18;;;;;;;28.94;44.85;98112.97;5061241;28;20057;-86
2022/08/25 11:26:00;;;;;;;6.43;5.82;;;;;;;29.25;45.41;98099.25;5065261;28;20040;-87
2022/08/25 11:28:56;;;;;;;6.88;6.28;;;;;;;29.37;44.89;98103.97;5041830;28;20056;-85
2022/08/25 11:31:26;;;;;;;7.30;6.68;;;;;;;29.12;43.07;98099.44;5029039;28;20131;-87
2022/08/25 11:33:55;;;;;;;7.38;6.75;;;;;;;28.85;43.94;98090.56;5032243;28;20107;-85
2022/08/25 11:36:39;;;;;;;5.93;5.32;;;;;;;28.83;45.71;98106.28;5044004;28;20158;-87
2022/08/25 11:39:32;;;;;;;6.93;6.22;;;;;;;28.77;45.03;98102.16;5051684;28;20086;-86
2022/08/25 11:42:41;;;;;;;7.38;6.78;;;;;;;28.51;46.40;98111.03;5042654;28;20147;-85
2022/08/25 11:45:33;;;;;;;7.13;6.53;;;;;;;28.50;46.39;98100.56;5030526;28;20444;-89
2022/08/25 11:48:35;;;;;;;5.90;5.40;;;;;;;28.40;45.64;98106.25;5074333;28;20415;-87
2022/08/25 11:51:08;;;;;;;6.50;5.90;;;;;;;28.40;47.07;98100.88;5028745;28;20137;-86
2022/08/25 11:53:42;;;;;;;6.25;5.72;;;;;;;28.34;46.86;98094.84;5048980;28;20049;-85
2022/08/25 11:56:32;;;;;;;7.47;6.72;;;;;;;28.17;45.74;98097.47;5052644;28;20072;-86
2022/08/25 11:59:00;;;;;;;7.93;7.13;;;;;;;28.01;46.20;98094.44;5061536;28;20095;-86
2022/08/25 12:01:38;;;;;;;5.60;5.03;;;;;;;28.15;47.20;98097.00;5030882;28;20045;-86
2022/08/25 12:04:34;;;;;;;6.80;5.85;;;;;;;28.14;46.07;98087.31;5070145;28;20044;-86
2022/08/25 12:07:10;;;;;;;6.82;6.22;;;;;;;28.20;46.93;98086.84;5069578;28;20071;-88
2022/08/25 12:09:54;;;;;;;6.40;5.85;;;;;;;28.28;46.18;98096.06;5066953;28;20040;-86
2022/08/25 12:12:54;;;;;;;8.20;7.40;;;;;;;28.32;45.88;98091.66;5042978;28;20042;-87
2022/08/25 12:15:33;;;;;;;7.57;6.93;;;;;;;28.45;46.02;98104.22;5036450;28;20095;-87
2022/08/25 12:18:34;;;;;;;6.65;6.07;;;;;;;28.54;45.25;98088.00;5036788;28;20045;-84